Time;durP1;ratioP1;P1;durP2;ratioP2;P2;SDS_P1;SDS_P2;PMS_P1;PMS_P2;Temp;Humidity;BMP_temperature;BMP_pressure;BME280_temperature;BME280_humidity;BME280_pressure;Samples;Min_cycle;Max_cycle;Signal;HPM_P1;HPM_P2
2023/03/24 00:01:54;;;;;;;3.88;1.75;;;13.00;99.90;;;;;;4131209;28;20445;-78
2023/03/24 00:03:56;;;;;;;4.07;1.67;;;13.00;99.90;;;;;;4136386;28;20042;-78
2023/03/24 00:06:01;;;;;;;5.18;1.73;;;13.00;99.90;;;;;;4137046;28;20035;-77
2023/03/24 00:08:02;;;;;;;3.85;1.50;;;12.90;99.90;;;;;;4136080;28;20034;-78
2023/03/24 00:10:07;;;;;;;2.58;1.50;;;12.90;99.90;;;;;;4152901;28;20576;-77
2023/03/24 00:12:09;;;;;;;2.90;1.55;;;12.90;99.90;;;;;;4141377;28;20061;-78
2023/03/24 00:14:13;;;;;;;;;;;12.90;99.90;;;;;;4132834;28;20061;-78
2023/03/24 00:16:15;;;;;;;2.30;1.33;;;13.00;99.90;;;;;;4131977;28;19936;-78
2023/03/24 00:18:17;;;;;;;7.97;2.07;;;13.00;99.90;;;;;;4136774;28;20031;-78
2023/03/24 00:20:20;;;;;;;4.75;1.90;;;13.00;99.90;;;;;;4135121;28;20488;-78
2023/03/24 00:22:21;;;;;;;4.45;1.63;;;13.00;99.90;;;;;;4130683;28;20026;-76
2023/03/24 00:24:22;;;;;;;2.35;1.73;;;13.00;99.90;;;;;;4137168;28;20092;-77
2023/03/24 00:26:23;;;;;;;4.10;1.55;;;13.00;99.90;;;;;;4132308;28;20038;-77
2023/03/24 00:28:24;;;;;;;3.47;1.60;;;13.00;99.90;;;;;;4138906;28;20355;-78
2023/03/24 00:30:25;;;;;;;3.05;1.35;;;13.00;99.90;;;;;;4133938;28;20057;-78
2023/03/24 00:32:26;;;;;;;3.53;1.55;;;13.00;99.90;;;;;;4138273;28;20432;-78
2023/03/24 00:34:27;;;;;;;3.13;1.63;;;13.00;99.90;;;;;;4134802;28;20070;-77
2023/03/24 00:36:28;;;;;;;2.92;1.60;;;13.00;99.90;;;;;;4159412;28;20041;-79
2023/03/24 00:38:28;;;;;;;3.15;1.52;;;13.00;99.90;;;;;;4140564;28;20034;-78
2023/03/24 00:40:29;;;;;;;2.22;1.45;;;13.00;99.90;;;;;;4132029;28;20038;-78
2023/03/24 00:42:32;;;;;;;2.20;1.60;;;13.00;99.90;;;;;;4132379;28;20065;-78
2023/03/24 00:44:33;;;;;;;3.70;1.67;;;13.00;99.90;;;;;;4134864;28;20093;-78
2023/03/24 00:46:34;;;;;;;2.97;1.40;;;13.00;99.90;;;;;;4135607;28;20441;-79
2023/03/24 00:48:37;;;;;;;2.58;1.30;;;13.00;99.90;;;;;;4130319;28;20069;-78
2023/03/24 00:50:37;;;;;;;3.20;1.60;;;13.00;99.90;;;;;;4131165;28;20046;-79
2023/03/24 00:52:43;;;;;;;2.30;1.33;;;13.00;99.90;;;;;;4143282;28;20482;-79
2023/03/24 00:54:44;;;;;;;3.80;1.40;;;13.00;99.90;;;;;;4128766;28;20037;-78
2023/03/24 00:56:48;;;;;;;5.57;1.48;;;13.00;99.90;;;;;;4138628;28;20068;-79
2023/03/24 00:58:49;;;;;;;3.58;1.83;;;13.00;99.90;;;;;;4140323;28;20104;-80
2023/03/24 01:00:53;;;;;;;4.30;1.48;;;13.00;99.90;;;;;;4140120;28;20042;-79
2023/03/24 01:02:56;;;;;;;2.13;1.23;;;13.00;99.90;;;;;;4137346;28;20035;-78
2023/03/24 01:04:59;;;;;;;2.05;1.40;;;13.00;99.90;;;;;;4134676;28;20049;-80
2023/03/24 01:06:59;;;;;;;3.90;1.60;;;13.00;99.90;;;;;;4139183;28;20087;-80
2023/03/24 01:09:01;;;;;;;2.80;1.40;;;13.00;99.90;;;;;;4140087;28;20116;-79
2023/03/24 01:11:03;;;;;;;2.80;1.38;;;13.00;99.90;;;;;;4137331;28;20473;-80
2023/03/24 01:13:04;;;;;;;3.45;1.70;;;13.00;99.90;;;;;;4142205;28;20084;-79
2023/03/24 01:15:13;;;;;;;3.20;1.40;;;13.10;99.90;;;;;;4136889;28;20698;-79
2023/03/24 01:17:14;;;;;;;3.55;1.60;;;13.10;99.90;;;;;;4151982;28;20104;-80
2023/03/24 01:19:15;;;;;;;2.05;1.13;;;13.10;99.90;;;;;;4136744;28;20473;-79
2023/03/24 01:21:17;;;;;;;1.67;1.13;;;13.10;99.90;;;;;;4134760;28;20551;-79
2023/03/24 01:23:22;;;;;;;2.33;1.60;;;13.00;99.90;;;;;;4133660;28;20089;-79
2023/03/24 01:25:24;;;;;;;3.88;2.13;;;13.00;99.90;;;;;;4135982;28;20033;-78
2023/03/24 01:27:25;;;;;;;5.67;1.40;;;13.10;99.90;;;;;;4146492;28;20065;-78
2023/03/24 01:29:25;;;;;;;2.08;1.23;;;13.10;99.90;;;;;;4139712;28;20281;-78
2023/03/24 01:31:26;;;;;;;4.07;1.63;;;13.10;99.90;;;;;;4142905;28;20057;-79
2023/03/24 01:33:26;;;;;;;2.92;1.63;;;13.10;99.90;;;;;;4133466;28;20096;-79
2023/03/24 01:35:27;;;;;;;3.00;1.60;;;13.10;99.90;;;;;;4133308;28;20040;-80
2023/03/24 01:37:27;;;;;;;1.75;1.10;;;13.10;99.90;;;;;;4134938;28;20045;-80
2023/03/24 01:39:28;;;;;;;4.00;1.48;;;13.10;99.90;;;;;;4139516;28;20042;-80
2023/03/24 01:41:34;;;;;;;2.15;1.55;;;13.20;99.90;;;;;;4135446;28;20046;-79
2023/03/24 01:43:35;;;;;;;2.45;1.65;;;13.20;99.90;;;;;;4132459;28;20462;-79
2023/03/24 01:45:38;;;;;;;4.57;1.70;;;13.10;99.90;;;;;;4133873;28;20046;-80
2023/03/24 01:47:39;;;;;;;2.45;1.52;;;13.20;99.90;;;;;;4128371;28;20392;-80
2023/03/24 01:49:45;;;;;;;2.40;1.70;;;13.20;99.90;;;;;;4130280;28;20066;-81
2023/03/24 01:51:49;;;;;;;2.55;1.40;;;13.20;99.90;;;;;;4136636;28;20034;-80
2023/03/24 01:54:15;;;;;;;2.70;1.58;;;13.20;99.90;;;;;;4135917;28;20398;-80
2023/03/24 01:56:16;;;;;;;1.55;1.33;;;13.30;99.90;;;;;;4136152;28;20476;-80
2023/03/24 01:58:17;;;;;;;3.60;1.70;;;13.30;99.90;;;;;;4136302;28;20052;-80
2023/03/24 02:00:20;;;;;;;2.50;1.50;;;13.30;99.90;;;;;;4135602;28;20149;-81
2023/03/24 02:02:21;;;;;;;4.63;1.70;;;13.30;99.90;;;;;;4129364;28;20022;-80
2023/03/24 02:04:24;;;;;;;2.22;1.60;;;13.30;99.90;;;;;;4125831;28;20031;-80
2023/03/24 02:06:25;;;;;;;3.78;1.73;;;13.30;99.90;;;;;;4138668;28;20046;-80
2023/03/24 02:08:47;;;;;;;2.40;1.70;;;13.30;99.90;;;;;;4134483;28;20030;-80
2023/03/24 02:10:49;;;;;;;3.05;1.70;;;13.40;99.90;;;;;;4137068;28;20542;-80
2023/03/24 02:12:50;;;;;;;2.92;1.77;;;13.30;99.90;;;;;;4146528;28;20088;-80
2023/03/24 02:14:51;;;;;;;1.92;1.40;;;13.30;99.90;;;;;;4143141;28;20037;-81
2023/03/24 02:17:05;;;;;;;1.98;1.40;;;13.40;99.90;;;;;;4141143;28;20034;-71
2023/03/24 02:19:43;;;;;;;1.95;1.40;;;13.40;99.90;;;;;;4136093;28;20034;-81
2023/03/24 02:22:12;;;;;;;2.22;1.63;;;13.40;99.90;;;;;;4139017;28;20385;-81
2023/03/24 02:24:45;;;;;;;4.45;1.92;;;13.40;99.90;;;;;;4135125;28;20424;-80
2023/03/24 02:27:29;;;;;;;2.47;1.47;;;13.40;99.90;;;;;;4137928;28;20040;-80
2023/03/24 02:29:47;;;;;;;2.17;1.52;;;13.30;99.90;;;;;;4119701;28;20054;-80
2023/03/24 02:32:06;;;;;;;2.67;1.67;;;13.40;99.90;;;;;;4136423;28;20502;-80
2023/03/24 02:34:39;;;;;;;1.55;1.45;;;13.40;99.90;;;;;;4136711;28;20152;-81
2023/03/24 02:37:13;;;;;;;2.43;1.57;;;13.40;99.90;;;;;;4063747;29;20096;-81
2023/03/24 02:39:31;;;;;;;;;;;13.40;99.90;;;;;;4132587;28;20102;-81
2023/03/24 02:41:53;;;;;;;3.05;1.70;;;13.40;99.90;;;;;;4132800;28;19961;-81
2023/03/24 02:43:56;;;;;;;2.75;1.75;;;13.40;99.90;;;;;;4135610;28;20037;-81
2023/03/24 02:46:33;;;;;;;4.38;1.60;;;13.40;99.90;;;;;;4141218;28;20037;-81
2023/03/24 02:48:42;;;;;;;3.40;1.73;;;13.40;99.90;;;;;;4133068;28;20041;-82
2023/03/24 02:51:16;;;;;;;3.00;1.85;;;13.40;99.90;;;;;;4138392;28;20100;-81
2023/03/24 02:53:53;;;;;;;2.20;1.95;;;13.40;99.90;;;;;;4137163;28;20039;-81
2023/03/24 02:56:12;;;;;;;3.80;2.30;;;13.40;99.90;;;;;;4130422;28;20121;-79
2023/03/24 02:58:29;;;;;;;3.55;1.92;;;13.40;99.90;;;;;;4136050;28;20049;-81
2023/03/24 03:01:02;;;;;;;4.88;2.10;;;13.40;99.90;;;;;;4137774;28;20511;-81
2023/03/24 03:03:14;;;;;;;2.72;1.83;;;13.50;99.90;;;;;;4137078;28;20033;-82
2023/03/24 03:05:26;;;;;;;2.38;1.75;;;13.50;99.90;;;;;;4137140;28;20052;-81
2023/03/24 03:07:32;;;;;;;3.28;2.28;;;13.50;99.90;;;;;;4133463;28;20038;-80
2023/03/24 03:09:34;;;;;;;3.42;1.83;;;13.50;99.90;;;;;;4131626;28;20038;-81
2023/03/24 03:11:35;;;;;;;4.28;2.33;;;13.60;99.90;;;;;;4133035;28;20081;-79
2023/03/24 03:13:41;;;;;;;1.80;1.60;;;13.50;99.90;;;;;;4131995;28;20034;-80
2023/03/24 03:15:45;;;;;;;3.90;1.90;;;13.60;99.90;;;;;;4137162;28;20033;-79
2023/03/24 03:17:58;;;;;;;2.00;1.80;;;13.60;99.90;;;;;;4136428;28;20038;-80
2023/03/24 03:20:05;;;;;;;3.42;2.25;;;13.60;99.90;;;;;;4134038;28;20044;-80
2023/03/24 03:22:11;;;;;;;2.95;2.00;;;13.70;99.90;;;;;;4131507;28;20177;-79
2023/03/24 03:24:26;;;;;;;3.90;2.15;;;13.70;99.90;;;;;;4129503;28;20060;-79
2023/03/24 03:26:31;;;;;;;2.22;1.80;;;13.70;99.90;;;;;;4129371;28;20030;-79
2023/03/24 03:28:35;;;;;;;2.33;1.60;;;13.80;99.90;;;;;;4132044;28;20378;-79
2023/03/24 03:30:46;;;;;;;2.92;2.08;;;13.80;99.90;;;;;;4123678;28;20034;-79
2023/03/24 03:33:02;;;;;;;3.10;1.77;;;13.80;99.90;;;;;;4129612;28;20504;-79
2023/03/24 03:35:22;;;;;;;3.00;1.88;;;13.90;99.90;;;;;;4130294;28;20088;-79
2023/03/24 03:37:42;;;;;;;3.38;1.83;;;13.90;99.90;;;;;;4129817;28;20041;-74
2023/03/24 03:39:53;;;;;;;3.97;1.70;;;13.90;99.90;;;;;;4131425;28;20046;-79
2023/03/24 03:41:54;;;;;;;2.63;1.75;;;14.00;99.90;;;;;;4127128;28;20445;-78
2023/03/24 03:43:55;;;;;;;3.75;1.75;;;14.00;99.90;;;;;;4132602;28;20031;-78
2023/03/24 03:45:57;;;;;;;2.47;1.58;;;14.00;99.90;;;;;;4130006;28;20185;-78
2023/03/24 03:47:57;;;;;;;2.65;1.65;;;14.00;99.90;;;;;;4129746;28;20037;-79
2023/03/24 03:49:58;;;;;;;3.30;1.98;;;14.00;99.90;;;;;;4130574;28;20031;-78
2023/03/24 03:51:59;;;;;;;2.78;1.80;;;14.00;99.90;;;;;;4134050;28;20037;-79
2023/03/24 03:54:03;;;;;;;2.47;1.73;;;14.00;99.90;;;;;;4144774;28;20057;-78
2023/03/24 03:56:04;;;;;;;2.97;1.63;;;14.00;99.90;;;;;;4130046;28;20034;-79
2023/03/24 03:58:05;;;;;;;3.58;1.92;;;14.00;99.90;;;;;;4131063;28;20026;-80
2023/03/24 04:00:12;;;;;;;3.92;1.67;;;14.00;99.90;;;;;;4132209;28;20042;-79
2023/03/24 04:02:25;;;;;;;3.78;1.90;;;14.00;99.90;;;;;;4134082;28;20042;-79
2023/03/24 04:04:38;;;;;;;3.88;1.60;;;13.90;99.90;;;;;;4130024;28;20148;-79
2023/03/24 04:06:49;;;;;;;3.53;1.90;;;13.90;99.90;;;;;;4132800;28;20034;-80
2023/03/24 04:09:19;;;;;;;2.88;1.50;;;13.90;99.90;;;;;;4129481;28;20121;-79
2023/03/24 04:11:45;;;;;;;3.90;2.17;;;13.90;99.90;;;;;;4129429;28;20038;-79
2023/03/24 04:14:05;;;;;;;2.42;1.40;;;13.80;99.90;;;;;;4128544;28;20070;-80
2023/03/24 04:16:16;;;;;;;1.60;1.40;;;13.80;99.90;;;;;;4128258;28;20042;-80
2023/03/24 04:18:27;;;;;;;3.30;1.52;;;13.80;99.90;;;;;;4130880;28;20031;-80
2023/03/24 04:20:53;;;;;;;3.17;1.63;;;13.70;99.90;;;;;;4132167;28;20465;-80
2023/03/24 04:23:00;;;;;;;2.95;1.50;;;13.70;99.90;;;;;;4135044;28;20067;-77
2023/03/24 04:25:35;;;;;;;2.40;1.25;;;13.70;99.90;;;;;;4147297;28;20037;-79
2023/03/24 04:27:59;;;;;;;1.80;1.50;;;13.70;99.90;;;;;;4099477;28;20038;-80
2023/03/24 04:30:15;;;;;;;1.40;1.10;;;13.60;99.90;;;;;;4135644;28;20125;-79
2023/03/24 04:32:25;;;;;;;2.90;1.50;;;13.60;99.90;;;;;;4129979;28;20065;-80
2023/03/24 04:34:40;;;;;;;4.82;1.67;;;13.60;99.90;;;;;;4131643;28;20397;-79
2023/03/24 04:36:53;;;;;;;3.05;1.42;;;13.60;99.90;;;;;;4132880;28;20117;-79
2023/03/24 04:38:56;;;;;;;1.60;1.20;;;13.50;99.90;;;;;;4133685;28;20102;-81
2023/03/24 04:40:58;;;;;;;2.80;1.30;;;13.50;99.90;;;;;;4133796;28;20052;-78
2023/03/24 04:43:03;;;;;;;2.53;1.53;;;13.50;99.90;;;;;;4132084;28;20038;-78
2023/03/24 04:45:05;;;;;;;2.58;1.30;;;13.40;99.90;;;;;;4130264;28;20084;-79
2023/03/24 04:47:07;;;;;;;5.78;1.10;;;13.40;99.90;;;;;;4130268;28;20036;-79
2023/03/24 04:49:08;;;;;;;1.25;0.85;;;13.40;99.90;;;;;;4133445;28;20023;-80
2023/03/24 04:51:11;;;;;;;3.90;1.17;;;13.40;99.90;;;;;;4136101;28;20053;-79
2023/03/24 04:53:11;;;;;;;2.55;1.27;;;13.40;99.90;;;;;;4133522;28;20030;-79
2023/03/24 04:55:36;;;;;;;4.90;1.60;;;13.30;99.90;;;;;;4130788;28;20054;-80
2023/03/24 04:57:37;;;;;;;4.07;1.73;;;13.20;99.90;;;;;;4140365;28;20041;-79
2023/03/24 04:59:39;;;;;;;4.05;1.77;;;13.20;99.90;;;;;;4137728;28;20491;-79
2023/03/24 05:01:40;;;;;;;3.05;1.92;;;13.10;99.90;;;;;;4129255;28;20034;-78
2023/03/24 05:03:44;;;;;;;3.95;1.50;;;13.10;99.90;;;;;;4135402;28;20041;-78
2023/03/24 05:05:47;;;;;;;7.50;2.08;;;13.00;99.90;;;;;;4134027;28;20041;-78
2023/03/24 05:07:48;;;;;;;4.13;1.58;;;12.90;99.90;;;;;;4132140;28;20433;-78
2023/03/24 05:09:49;;;;;;;4.45;1.58;;;12.80;99.90;;;;;;4130972;28;20157;-78
2023/03/24 05:11:50;;;;;;;4.10;1.45;;;12.80;99.90;;;;;;4142863;28;20501;-78
2023/03/24 05:13:51;;;;;;;4.78;1.45;;;12.70;99.90;;;;;;4133978;28;20495;-77
2023/03/24 05:15:53;;;;;;;3.35;1.88;;;12.70;99.90;;;;;;4142873;28;20037;-77
2023/03/24 05:17:54;;;;;;;3.63;1.75;;;12.60;99.90;;;;;;4134499;28;20371;-77
2023/03/24 05:19:55;;;;;;;7.97;2.03;;;12.50;99.90;;;;;;4131835;28;20038;-77
2023/03/24 05:21:55;;;;;;;2.03;1.15;;;12.40;99.90;;;;;;4134303;28;20122;-76
2023/03/24 05:23:56;;;;;;;6.18;1.77;;;12.30;99.90;;;;;;4133836;28;20030;-76
2023/03/24 05:25:56;;;;;;;3.92;1.30;;;12.30;99.90;;;;;;4130558;28;20037;-75
2023/03/24 05:27:58;;;;;;;3.72;1.70;;;12.30;99.90;;;;;;4133843;28;20034;-76
2023/03/24 05:29:58;;;;;;;6.03;1.50;;;12.30;99.90;;;;;;4130384;28;20034;-75
2023/03/24 05:31:59;;;;;;;5.15;1.17;;;12.20;99.90;;;;;;4133315;28;20401;-76
2023/03/24 05:34:00;;;;;;;5.43;2.05;;;12.20;99.90;;;;;;4129767;28;20038;-76
2023/03/24 05:36:00;;;;;;;4.07;1.30;;;12.10;99.90;;;;;;4131942;28;20026;-76
2023/03/24 05:38:01;;;;;;;5.63;1.63;;;12.10;99.90;;;;;;4134003;28;20126;-76
2023/03/24 05:40:02;;;;;;;9.52;1.50;;;12.10;99.90;;;;;;4132562;28;20038;-75
2023/03/24 05:42:02;;;;;;;5.15;1.40;;;12.00;99.90;;;;;;4133116;28;20031;-75
2023/03/24 05:44:03;;;;;;;4.50;1.73;;;12.00;99.90;;;;;;4130596;28;20042;-75
2023/03/24 05:46:04;;;;;;;4.68;1.45;;;11.90;99.90;;;;;;4127396;28;20402;-75
2023/03/24 05:48:05;;;;;;;5.25;2.03;;;11.90;99.90;;;;;;4137532;28;20037;-74
2023/03/24 05:50:06;;;;;;;6.63;1.40;;;11.80;99.90;;;;;;4132615;28;20493;-75
2023/03/24 05:52:08;;;;;;;8.38;1.55;;;11.80;99.90;;;;;;4130678;28;20034;-75
2023/03/24 05:54:08;;;;;;;12.02;2.15;;;11.80;99.90;;;;;;4133993;28;20156;-74
2023/03/24 05:56:10;;;;;;;6.35;2.03;;;11.80;99.90;;;;;;4134473;28;20563;-76
2023/03/24 05:58:11;;;;;;;7.10;1.40;;;11.80;99.90;;;;;;4133036;28;20029;-76
2023/03/24 06:00:16;;;;;;;5.57;1.73;;;11.70;99.90;;;;;;4129788;28;20030;-75
2023/03/24 06:02:16;;;;;;;6.47;1.60;;;11.70;99.90;;;;;;4127514;28;20038;-76
2023/03/24 06:04:17;;;;;;;6.35;1.33;;;11.70;99.90;;;;;;4133017;28;20130;-75
2023/03/24 06:06:18;;;;;;;8.63;1.83;;;11.70;99.90;;;;;;4131473;28;20104;-74
2023/03/24 06:08:18;;;;;;;5.38;1.40;;;11.70;99.90;;;;;;4132463;28;20041;-76
2023/03/24 06:10:21;;;;;;;3.47;1.30;;;11.70;99.90;;;;;;4135311;28;20042;-75
2023/03/24 06:12:21;;;;;;;6.60;2.75;;;11.70;99.90;;;;;;4135472;28;20429;-75
2023/03/24 06:14:22;;;;;;;10.63;4.75;;;11.70;99.90;;;;;;4129461;28;20035;-76
2023/03/24 06:16:24;;;;;;;8.70;3.80;;;11.80;99.90;;;;;;4127856;28;20035;-76
2023/03/24 06:18:25;;;;;;;7.83;2.30;;;11.70;99.90;;;;;;4128127;28;20050;-75
2023/03/24 06:20:26;;;;;;;9.40;2.37;;;11.70;99.90;;;;;;4157570;28;20111;-75
2023/03/24 06:22:27;;;;;;;8.80;2.30;;;11.70;99.90;;;;;;4126586;28;20061;-70
2023/03/24 06:24:29;;;;;;;6.80;1.92;;;11.70;99.90;;;;;;4127625;28;20050;-71
2023/03/24 06:26:29;;;;;;;5.18;1.60;;;11.70;99.90;;;;;;4122285;28;20117;-70
2023/03/24 06:28:33;;;;;;;6.03;1.73;;;11.70;99.90;;;;;;4128444;28;20058;-70
2023/03/24 06:30:33;;;;;;;9.68;1.67;;;11.70;99.90;;;;;;4121980;28;20027;-71
2023/03/24 06:32:34;;;;;;;23.33;12.32;;;11.80;99.90;;;;;;4126900;28;20057;-75
2023/03/24 06:34:37;;;;;;;7.28;2.20;;;11.80;99.90;;;;;;4126698;28;20125;-74
2023/03/24 06:36:38;;;;;;;9.88;1.90;;;11.80;99.90;;;;;;4127964;28;20069;-76
2023/03/24 06:38:39;;;;;;;6.63;1.52;;;11.90;99.90;;;;;;4130292;28;20113;-76
2023/03/24 06:40:40;;;;;;;7.45;1.48;;;12.00;99.90;;;;;;4126410;28;20105;-76
2023/03/24 06:42:40;;;;;;;6.32;1.50;;;12.20;99.90;;;;;;4127089;28;20389;-75
2023/03/24 06:44:41;;;;;;;8.20;1.67;;;12.40;99.90;;;;;;4128058;28;20397;-74
2023/03/24 06:46:42;;;;;;;8.27;2.55;;;12.60;99.90;;;;;;4127754;28;20154;-71
2023/03/24 06:48:42;;;;;;;5.28;1.75;;;12.80;99.90;;;;;;4126712;28;20036;-75
2023/03/24 06:50:43;;;;;;;9.73;2.13;;;13.00;99.90;;;;;;4126488;28;20246;-75
2023/03/24 06:52:43;;;;;;;9.30;2.10;;;13.20;99.90;;;;;;4126184;28;20046;-75
2023/03/24 06:54:44;;;;;;;5.60;1.50;;;13.30;99.90;;;;;;4129554;28;20062;-76
2023/03/24 06:56:45;;;;;;;8.90;2.00;;;13.50;99.90;;;;;;4127189;28;20054;-75
2023/03/24 06:58:46;;;;;;;5.45;1.55;;;13.70;99.90;;;;;;4125762;28;20678;-76
2023/03/24 07:00:46;;;;;;;6.05;1.85;;;13.80;99.90;;;;;;4126721;28;20061;-74
2023/03/24 07:02:47;;;;;;;6.00;1.63;;;13.90;99.90;;;;;;4125188;28;20087;-76
2023/03/24 07:04:49;;;;;;;8.73;2.13;;;14.00;99.90;;;;;;4128098;28;20058;-75
2023/03/24 07:06:49;;;;;;;11.40;2.37;;;14.20;99.90;;;;;;4127632;28;20343;-76
2023/03/24 07:08:51;;;;;;;10.07;1.88;;;14.30;99.90;;;;;;4129307;28;20126;-75
2023/03/24 07:10:51;;;;;;;4.50;1.40;;;14.40;99.90;;;;;;4126329;28;20432;-74
2023/03/24 07:12:52;;;;;;;10.18;2.15;;;14.60;99.90;;;;;;4126701;28;20121;-75
2023/03/24 07:14:52;;;;;;;10.40;2.08;;;14.70;99.90;;;;;;4128084;28;20035;-76
2023/03/24 07:16:53;;;;;;;6.35;1.58;;;14.70;99.90;;;;;;4128465;28;20037;-75
2023/03/24 07:18:53;;;;;;;8.82;2.10;;;14.80;99.90;;;;;;4126395;28;20489;-69
2023/03/24 07:20:54;;;;;;;9.80;2.13;;;15.00;99.90;;;;;;4129783;28;20034;-73
2023/03/24 07:22:56;;;;;;;6.55;1.80;;;15.10;99.90;;;;;;4129105;28;20033;-74
2023/03/24 07:24:57;;;;;;;4.70;1.80;;;15.30;99.90;;;;;;4127723;28;20061;-74
2023/03/24 07:26:57;;;;;;;5.78;1.50;;;15.50;99.90;;;;;;4131871;28;20038;-70
2023/03/24 07:28:58;;;;;;;5.63;1.60;;;15.70;99.90;;;;;;4126858;28;20445;-74
2023/03/24 07:31:02;;;;;;;11.50;2.75;;;15.80;99.90;;;;;;4125388;28;20097;-75
2023/03/24 07:33:05;;;;;;;5.43;1.60;;;15.80;99.90;;;;;;4128523;28;20052;-76
2023/03/24 07:35:09;;;;;;;7.07;1.90;;;15.80;99.90;;;;;;4127051;28;20037;-75
2023/03/24 07:37:10;;;;;;;8.98;2.03;;;15.80;99.90;;;;;;4126330;28;20497;-75
2023/03/24 07:39:12;;;;;;;5.70;1.80;;;15.80;99.90;;;;;;4126678;28;20057;-75
2023/03/24 07:41:12;;;;;;;8.65;1.98;;;16.00;99.90;;;;;;4124220;28;20151;-78
2023/03/24 07:43:13;;;;;;;6.85;2.03;;;16.10;99.90;;;;;;4125911;28;20510;-75
2023/03/24 07:45:14;;;;;;;6.35;1.40;;;16.30;99.90;;;;;;4124314;28;20402;-75
2023/03/24 07:47:15;;;;;;;6.97;1.80;;;16.40;99.90;;;;;;4128752;28;20030;-75
2023/03/24 07:49:16;;;;;;;8.30;2.13;;;16.40;99.90;;;;;;4124761;28;20091;-75
2023/03/24 07:51:18;;;;;;;6.22;1.42;;;16.40;99.90;;;;;;4128381;28;20477;-74
2023/03/24 07:53:19;;;;;;;8.45;2.10;;;16.50;99.90;;;;;;4127505;28;20053;-75
2023/03/24 07:55:20;;;;;;;4.57;1.45;;;16.50;99.90;;;;;;4128373;28;20034;-76
2023/03/24 07:57:21;;;;;;;6.55;1.88;;;16.60;99.90;;;;;;4128553;28;20030;-76
2023/03/24 07:59:22;;;;;;;8.25;1.55;;;16.70;99.90;;;;;;4131876;28;20026;-76
2023/03/24 08:01:23;;;;;;;6.68;1.95;;;16.90;99.90;;;;;;4130590;28;20034;-75
2023/03/24 08:03:26;;;;;;;8.30;2.60;;;16.90;99.90;;;;;;4131566;28;20089;-75
2023/03/24 08:05:28;;;;;;;8.98;1.90;;;16.70;99.90;;;;;;4129392;28;20054;-74
2023/03/24 08:07:29;;;;;;;7.35;2.42;;;16.70;99.90;;;;;;4130056;28;20390;-77
2023/03/24 08:09:30;;;;;;;5.72;1.95;;;16.70;99.90;;;;;;4131150;28;20038;-75
2023/03/24 08:11:30;;;;;;;7.72;2.03;;;16.60;99.90;;;;;;4129071;28;20039;-75
2023/03/24 08:13:31;;;;;;;8.15;2.30;;;16.40;99.90;;;;;;4128899;28;20401;-75
2023/03/24 08:15:32;;;;;;;8.70;2.25;;;16.40;99.90;;;;;;4128345;28;20062;-75
2023/03/24 08:17:33;;;;;;;4.60;1.42;;;16.30;99.90;;;;;;4128703;28;20363;-74
2023/03/24 08:19:33;;;;;;;6.45;1.63;;;16.10;99.90;;;;;;4129980;28;20038;-75
2023/03/24 08:21:34;;;;;;;5.57;1.98;;;16.00;99.90;;;;;;4129675;28;20034;-75
2023/03/24 08:23:35;;;;;;;8.45;2.42;;;16.10;99.90;;;;;;4128046;28;20057;-75
2023/03/24 08:25:36;;;;;;;8.60;2.30;;;16.00;99.90;;;;;;4129979;28;20537;-75
2023/03/24 08:27:38;;;;;;;10.32;2.05;;;15.90;99.90;;;;;;4131289;28;20090;-75
2023/03/24 08:29:39;;;;;;;9.45;2.50;;;15.90;99.90;;;;;;4129104;28;20065;-75
2023/03/24 08:31:40;;;;;;;7.28;2.28;;;15.80;99.90;;;;;;4128444;28;20030;-75
2023/03/24 08:33:40;;;;;;;6.25;2.15;;;15.80;99.90;;;;;;4130850;28;20494;-75
2023/03/24 08:35:44;;;;;;;11.25;2.42;;;15.90;99.90;;;;;;4131070;28;20093;-74
2023/03/24 08:37:45;;;;;;;10.45;2.53;;;16.00;99.90;;;;;;4128659;28;20085;-75
2023/03/24 08:39:46;;;;;;;12.35;2.22;;;16.00;99.90;;;;;;4130093;28;20037;-75
2023/03/24 08:41:48;;;;;;;10.48;2.15;;;15.90;99.90;;;;;;4128650;28;20050;-74
2023/03/24 08:43:49;;;;;;;10.85;2.50;;;15.80;99.90;;;;;;4128178;28;20042;-75
2023/03/24 08:45:50;;;;;;;10.40;2.75;;;15.80;99.90;;;;;;4128384;28;20383;-75
2023/03/24 08:47:51;;;;;;;8.63;2.38;;;15.80;99.90;;;;;;4129192;28;20065;-75
2023/03/24 08:49:56;;;;;;;7.13;1.95;;;15.90;99.90;;;;;;4129217;28;20482;-75
2023/03/24 08:51:57;;;;;;;6.78;2.47;;;15.90;99.90;;;;;;4126114;28;20161;-74
2023/03/24 08:53:58;;;;;;;7.18;2.10;;;16.00;99.90;;;;;;4127583;28;20072;-74
2023/03/24 08:55:58;;;;;;;6.28;1.90;;;16.00;99.90;;;;;;4128516;28;20053;-69
2023/03/24 08:58:00;;;;;;;9.38;2.47;;;16.00;99.90;;;;;;4131933;28;20034;-73
2023/03/24 09:00:00;;;;;;;8.82;2.83;;;15.90;99.90;;;;;;4128473;28;20041;-74
2023/03/24 09:02:01;;;;;;;10.63;2.58;;;15.90;99.90;;;;;;4143380;28;20033;-74
2023/03/24 09:04:02;;;;;;;6.68;2.13;;;15.80;99.90;;;;;;4129783;28;20030;-74
2023/03/24 09:06:03;;;;;;;9.02;2.80;;;15.70;99.90;;;;;;4130362;28;20038;-75
2023/03/24 09:08:04;;;;;;;7.00;2.10;;;15.60;99.90;;;;;;4128732;28;20041;-74
2023/03/24 09:10:06;;;;;;;8.13;2.15;;;15.70;99.90;;;;;;4130356;28;20027;-75
2023/03/24 09:12:08;;;;;;;9.03;2.13;;;15.80;99.90;;;;;;4132806;28;20057;-75
2023/03/24 09:14:09;;;;;;;10.35;2.25;;;15.80;99.90;;;;;;4128094;28;20116;-74
2023/03/24 09:16:10;;;;;;;15.55;2.95;;;15.70;99.90;;;;;;4123608;28;20445;-74
2023/03/24 09:18:10;;;;;;;7.63;1.98;;;15.70;99.90;;;;;;4129580;28;20026;-75
2023/03/24 09:20:14;;;;;;;11.43;2.67;;;15.60;99.90;;;;;;4127817;28;20157;-76
2023/03/24 09:22:15;;;;;;;15.98;2.70;;;15.60;99.90;;;;;;4127851;28;20470;-74
2023/03/24 09:24:16;;;;;;;10.25;2.88;;;15.60;99.90;;;;;;4129725;28;20117;-75
2023/03/24 09:26:16;;;;;;;8.07;1.83;;;15.60;99.90;;;;;;4128931;28;20085;-75
2023/03/24 09:28:17;;;;;;;8.15;2.47;;;15.60;99.90;;;;;;4130494;28;20027;-75
2023/03/24 09:30:18;;;;;;;7.82;2.33;;;15.50;99.90;;;;;;4125941;28;20046;-75
2023/03/24 09:32:19;;;;;;;11.15;2.55;;;15.40;99.90;;;;;;4129983;28;20033;-74
2023/03/24 09:34:20;;;;;;;9.38;2.17;;;15.40;99.90;;;;;;4128866;28;20030;-74
2023/03/24 09:36:21;;;;;;;8.43;2.45;;;15.20;99.90;;;;;;4128991;28;20036;-73
2023/03/24 09:38:22;;;;;;;10.00;2.30;;;15.20;99.90;;;;;;4131845;28;20034;-73
2023/03/24 09:40:26;;;;;;;10.57;2.25;;;15.10;99.90;;;;;;4126934;28;20039;-74
2023/03/24 09:42:31;;;;;;;7.97;2.53;;;15.10;99.90;;;;;;4128741;28;20026;-74
2023/03/24 09:44:42;;;;;;;6.93;1.88;;;15.20;99.90;;;;;;4129521;28;20037;-73
2023/03/24 09:46:51;;;;;;;9.60;2.33;;;15.10;99.90;;;;;;4127910;28;20034;-74
2023/03/24 09:48:56;;;;;;;5.18;1.60;;;15.10;99.90;;;;;;4129763;28;20034;-73
2023/03/24 09:51:02;;;;;;;9.05;2.00;;;14.90;99.90;;;;;;4129727;28;20058;-73
2023/03/24 09:53:46;;;;;;;8.07;2.20;;;14.80;99.90;;;;;;4127040;28;20045;-72
2023/03/24 09:55:48;;;;;;;8.68;2.05;;;14.80;99.90;;;;;;4129715;28;20444;-74
2023/03/24 09:57:50;;;;;;;8.95;2.17;;;14.70;99.90;;;;;;4128852;28;20114;-73
2023/03/24 09:59:51;;;;;;;13.07;2.72;;;14.80;99.90;;;;;;4128979;28;20061;-74
2023/03/24 10:01:51;;;;;;;6.40;1.90;;;14.80;99.90;;;;;;4124980;28;20038;-73
2023/03/24 10:03:57;;;;;;;9.10;1.45;;;14.80;99.90;;;;;;4157895;28;20068;-74
2023/03/24 10:06:12;;;;;;;9.05;2.13;;;14.80;99.90;;;;;;4127608;28;20046;-73
2023/03/24 10:08:16;;;;;;;12.13;2.13;;;14.90;99.90;;;;;;4127557;28;20034;-75
2023/03/24 10:10:31;;;;;;;7.72;2.22;;;15.00;99.90;;;;;;4127571;28;20038;-74
2023/03/24 10:12:38;;;;;;;7.57;1.90;;;15.10;99.90;;;;;;4123268;28;20066;-74
2023/03/24 10:14:45;;;;;;;6.55;1.90;;;15.20;99.90;;;;;;4130312;28;20038;-73
2023/03/24 10:16:53;;;;;;;9.18;2.40;;;15.20;99.90;;;;;;4124745;28;20117;-73
2023/03/24 10:19:12;;;;;;;6.72;2.08;;;15.20;99.90;;;;;;4130139;28;20410;-74
2023/03/24 10:21:13;;;;;;;11.05;2.30;;;15.10;99.90;;;;;;4127431;28;20537;-74
2023/03/24 10:23:47;;;;;;;9.55;2.08;;;15.00;99.90;;;;;;4127906;28;20065;-73
2023/03/24 10:26:03;;;;;;;8.85;2.25;;;15.00;99.90;;;;;;4127513;28;20374;-74
2023/03/24 10:28:12;;;;;;;10.02;1.98;;;15.10;99.90;;;;;;4126788;28;20077;-73
2023/03/24 10:30:19;;;;;;;6.05;1.77;;;15.00;99.90;;;;;;4129133;28;20392;-74
2023/03/24 10:32:25;;;;;;;11.48;2.35;;;15.00;99.90;;;;;;4127256;28;20031;-74
2023/03/24 10:34:30;;;;;;;6.88;2.20;;;15.10;99.90;;;;;;4127646;28;20117;-72
2023/03/24 10:36:31;;;;;;;8.20;1.80;;;15.00;99.90;;;;;;4127678;28;20128;-71
2023/03/24 10:38:31;;;;;;;13.43;2.90;;;15.00;99.90;;;;;;4126248;28;20073;-73
2023/03/24 10:40:32;;;;;;;10.15;2.28;;;14.90;99.90;;;;;;4128215;28;20037;-74
2023/03/24 10:42:34;;;;;;;7.43;2.15;;;14.80;99.90;;;;;;4126138;28;20036;-73
2023/03/24 10:44:35;;;;;;;6.90;1.73;;;14.70;99.90;;;;;;4131075;28;20517;-72
2023/03/24 10:46:40;;;;;;;6.82;1.70;;;14.70;99.90;;;;;;4122651;28;20062;-71
2023/03/24 10:48:45;;;;;;;6.35;1.77;;;14.80;99.90;;;;;;4128714;28;20141;-72
2023/03/24 10:50:47;;;;;;;8.48;2.10;;;14.80;99.90;;;;;;4124939;28;20064;-72